sensor_id;sensor_type;location;lat;lon;timestamp;temperature;humidity
60455;DHT22;54989;53.398;6.564;2022-09-09T00:03:58;22.40;64.20
60455;DHT22;54989;53.398;6.564;2022-09-09T00:06:43;22.40;64.20
60455;DHT22;54989;53.398;6.564;2022-09-09T00:09:23;22.40;64.10
60455;DHT22;54989;53.398;6.564;2022-09-09T00:12:12;22.40;64.10
60455;DHT22;54989;53.398;6.564;2022-09-09T00:14:51;22.40;64.10
60455;DHT22;54989;53.398;6.564;2022-09-09T00:17:38;22.40;64.20
60455;DHT22;54989;53.398;6.564;2022-09-09T00:20:33;22.40;64.20
60455;DHT22;54989;53.398;6.564;2022-09-09T00:23:12;22.40;64.10
60455;DHT22;54989;53.398;6.564;2022-09-09T00:28:22;22.40;64.10
60455;DHT22;54989;53.398;6.564;2022-09-09T00:30:50;22.40;64.20
60455;DHT22;54989;53.398;6.564;2022-09-09T00:33:20;22.30;64.10
60455;DHT22;54989;53.398;6.564;2022-09-09T00:35:53;22.40;64.20
60455;DHT22;54989;53.398;6.564;2022-09-09T00:38:28;22.40;64.20
60455;DHT22;54989;53.398;6.564;2022-09-09T00:43:52;22.40;64.20
60455;DHT22;54989;53.398;6.564;2022-09-09T00:46:41;22.30;64.10
60455;DHT22;54989;53.398;6.564;2022-09-09T00:57:29;22.30;64.10
60455;DHT22;54989;53.398;6.564;2022-09-09T01:05:42;22.30;64.10
60455;DHT22;54989;53.398;6.564;2022-09-09T01:10:56;22.30;64.10
60455;DHT22;54989;53.398;6.564;2022-09-09T01:13:31;22.30;64.10
60455;DHT22;54989;53.398;6.564;2022-09-09T01:16:08;22.30;64.10
60455;DHT22;54989;53.398;6.564;2022-09-09T01:18:43;22.30;64.10
60455;DHT22;54989;53.398;6.564;2022-09-09T01:27:01;22.30;64.10
60455;DHT22;54989;53.398;6.564;2022-09-09T01:29:29;22.30;64.20
60455;DHT22;54989;53.398;6.564;2022-09-09T01:32:03;22.20;64.10
60455;DHT22;54989;53.398;6.564;2022-09-09T01:34:50;22.30;64.10
60455;DHT22;54989;53.398;6.564;2022-09-09T01:37:19;22.20;64.70
60455;DHT22;54989;53.398;6.564;2022-09-09T01:39:46;22.20;64.00
60455;DHT22;54989;53.398;6.564;2022-09-09T01:42:17;22.20;64.10
60455;DHT22;54989;53.398;6.564;2022-09-09T01:44:46;22.20;64.10
60455;DHT22;54989;53.398;6.564;2022-09-09T01:47:15;22.20;64.00
60455;DHT22;54989;53.398;6.564;2022-09-09T01:50:01;22.20;64.00
60455;DHT22;54989;53.398;6.564;2022-09-09T01:52:31;22.20;64.00
60455;DHT22;54989;53.398;6.564;2022-09-09T01:55:01;22.20;64.10
60455;DHT22;54989;53.398;6.564;2022-09-09T02:00:10;22.20;64.00
60455;DHT22;54989;53.398;6.564;2022-09-09T02:05:40;22.20;64.00
60455;DHT22;54989;53.398;6.564;2022-09-09T02:08:43;22.20;64.00
60455;DHT22;54989;53.398;6.564;2022-09-09T02:11:18;22.20;64.00
60455;DHT22;54989;53.398;6.564;2022-09-09T02:14:05;22.20;64.00
60455;DHT22;54989;53.398;6.564;2022-09-09T02:16:40;22.20;64.00
60455;DHT22;54989;53.398;6.564;2022-09-09T02:19:20;22.10;64.00
60455;DHT22;54989;53.398;6.564;2022-09-09T02:22:01;22.10;64.00
60455;DHT22;54989;53.398;6.564;2022-09-09T02:24:32;22.10;64.00
60455;DHT22;54989;53.398;6.564;2022-09-09T02:27:12;22.10;64.10
60455;DHT22;54989;53.398;6.564;2022-09-09T02:29:42;22.10;64.00
60455;DHT22;54989;53.398;6.564;2022-09-09T02:32:22;22.10;64.00
60455;DHT22;54989;53.398;6.564;2022-09-09T02:34:56;22.10;64.00
60455;DHT22;54989;53.398;6.564;2022-09-09T02:37:29;22.10;64.00
60455;DHT22;54989;53.398;6.564;2022-09-09T02:39:59;22.10;64.00
60455;DHT22;54989;53.398;6.564;2022-09-09T02:42:26;22.10;64.00
60455;DHT22;54989;53.398;6.564;2022-09-09T02:44:56;22.10;64.00
60455;DHT22;54989;53.398;6.564;2022-09-09T02:47:31;22.10;64.00
60455;DHT22;54989;53.398;6.564;2022-09-09T02:50:22;22.10;64.00
60455;DHT22;54989;53.398;6.564;2022-09-09T02:53:11;22.10;64.00
60455;DHT22;54989;53.398;6.564;2022-09-09T02:55:50;22.10;64.00
60455;DHT22;54989;53.398;6.564;2022-09-09T02:58:21;22.10;64.00
60455;DHT22;54989;53.398;6.564;2022-09-09T03:01:00;22.10;64.00
60455;DHT22;54989;53.398;6.564;2022-09-09T03:03:31;22.10;64.00
60455;DHT22;54989;53.398;6.564;2022-09-09T03:06:02;22.00;63.90
60455;DHT22;54989;53.398;6.564;2022-09-09T03:08:30;22.00;64.00
60455;DHT22;54989;53.398;6.564;2022-09-09T03:10:59;22.00;64.00
60455;DHT22;54989;53.398;6.564;2022-09-09T03:13:33;22.00;64.00
60455;DHT22;54989;53.398;6.564;2022-09-09T03:16:01;22.00;64.10
60455;DHT22;54989;53.398;6.564;2022-09-09T03:18:31;22.00;64.00
60455;DHT22;54989;53.398;6.564;2022-09-09T03:20:59;22.00;64.00
60455;DHT22;54989;53.398;6.564;2022-09-09T03:23:29;22.00;64.00
60455;DHT22;54989;53.398;6.564;2022-09-09T03:26:00;22.00;63.90
60455;DHT22;54989;53.398;6.564;2022-09-09T03:28:37;22.00;64.00
60455;DHT22;54989;53.398;6.564;2022-09-09T03:31:06;22.00;64.00
60455;DHT22;54989;53.398;6.564;2022-09-09T03:33:38;22.00;64.00
60455;DHT22;54989;53.398;6.564;2022-09-09T03:36:11;22.00;64.00
60455;DHT22;54989;53.398;6.564;2022-09-09T03:38:38;22.00;64.00
60455;DHT22;54989;53.398;6.564;2022-09-09T03:41:07;22.00;64.00
60455;DHT22;54989;53.398;6.564;2022-09-09T03:43:35;22.00;64.00
60455;DHT22;54989;53.398;6.564;2022-09-09T03:46:04;22.00;64.70
60455;DHT22;54989;53.398;6.564;2022-09-09T03:48:31;22.00;64.00
60455;DHT22;54989;53.398;6.564;2022-09-09T03:51:00;22.00;63.90
60455;DHT22;54989;53.398;6.564;2022-09-09T03:53:31;22.00;64.00
60455;DHT22;54989;53.398;6.564;2022-09-09T03:55:59;22.00;64.00
60455;DHT22;54989;53.398;6.564;2022-09-09T03:58:29;22.00;64.00
60455;DHT22;54989;53.398;6.564;2022-09-09T04:01:06;22.00;64.00
60455;DHT22;54989;53.398;6.564;2022-09-09T04:03:36;21.90;64.00
60455;DHT22;54989;53.398;6.564;2022-09-09T04:06:05;21.90;64.00
60455;DHT22;54989;53.398;6.564;2022-09-09T04:08:34;22.00;64.10
60455;DHT22;54989;53.398;6.564;2022-09-09T04:11:04;21.90;63.90
60455;DHT22;54989;53.398;6.564;2022-09-09T04:13:35;21.90;64.00
60455;DHT22;54989;53.398;6.564;2022-09-09T04:16:05;21.90;64.00
60455;DHT22;54989;53.398;6.564;2022-09-09T04:18:34;21.90;64.00
60455;DHT22;54989;53.398;6.564;2022-09-09T04:21:03;21.90;64.60
60455;DHT22;54989;53.398;6.564;2022-09-09T04:23:33;21.90;64.00
60455;DHT22;54989;53.398;6.564;2022-09-09T04:26:02;21.90;64.00
60455;DHT22;54989;53.398;6.564;2022-09-09T04:28:34;21.90;64.00
60455;DHT22;54989;53.398;6.564;2022-09-09T04:31:10;21.90;64.00
60455;DHT22;54989;53.398;6.564;2022-09-09T04:33:39;21.90;64.00
60455;DHT22;54989;53.398;6.564;2022-09-09T04:36:08;21.90;64.00
60455;DHT22;54989;53.398;6.564;2022-09-09T04:38:36;21.90;64.10
60455;DHT22;54989;53.398;6.564;2022-09-09T04:41:05;21.90;64.00
60455;DHT22;54989;53.398;6.564;2022-09-09T04:43:34;21.90;64.00
60455;DHT22;54989;53.398;6.564;2022-09-09T04:46:05;21.90;64.10
60455;DHT22;54989;53.398;6.564;2022-09-09T04:48:33;21.90;64.10
60455;DHT22;54989;53.398;6.564;2022-09-09T04:51:04;21.90;64.10
60455;DHT22;54989;53.398;6.564;2022-09-09T04:53:33;21.90;64.10
60455;DHT22;54989;53.398;6.564;2022-09-09T04:56:14;21.80;64.00
60455;DHT22;54989;53.398;6.564;2022-09-09T04:58:47;21.80;64.00
60455;DHT22;54989;53.398;6.564;2022-09-09T05:01:19;21.80;64.10
60455;DHT22;54989;53.398;6.564;2022-09-09T05:03:48;21.90;64.10
60455;DHT22;54989;53.398;6.564;2022-09-09T05:06:20;21.80;64.00
60455;DHT22;54989;53.398;6.564;2022-09-09T05:08:52;21.80;64.10
60455;DHT22;54989;53.398;6.564;2022-09-09T05:11:31;21.80;64.10
60455;DHT22;54989;53.398;6.564;2022-09-09T05:14:05;21.80;64.00
60455;DHT22;54989;53.398;6.564;2022-09-09T05:16:32;21.80;64.00
60455;DHT22;54989;53.398;6.564;2022-09-09T05:19:00;21.80;64.10
60455;DHT22;54989;53.398;6.564;2022-09-09T05:21:42;21.80;64.00
60455;DHT22;54989;53.398;6.564;2022-09-09T05:24:12;21.80;64.00
60455;DHT22;54989;53.398;6.564;2022-09-09T05:26:40;21.80;64.00
60455;DHT22;54989;53.398;6.564;2022-09-09T05:29:08;21.80;64.00
60455;DHT22;54989;53.398;6.564;2022-09-09T05:31:36;21.80;64.00
60455;DHT22;54989;53.398;6.564;2022-09-09T05:34:08;21.80;64.20
60455;DHT22;54989;53.398;6.564;2022-09-09T05:36:36;21.80;64.00
60455;DHT22;54989;53.398;6.564;2022-09-09T05:39:04;21.80;64.00
60455;DHT22;54989;53.398;6.564;2022-09-09T05:41:33;21.80;64.10
60455;DHT22;54989;53.398;6.564;2022-09-09T05:44:02;21.80;64.00
60455;DHT22;54989;53.398;6.564;2022-09-09T05:46:35;21.80;64.10
60455;DHT22;54989;53.398;6.564;2022-09-09T05:49:03;21.80;64.20
60455;DHT22;54989;53.398;6.564;2022-09-09T05:51:33;21.80;64.10
60455;DHT22;54989;53.398;6.564;2022-09-09T05:54:06;21.80;64.10
60455;DHT22;54989;53.398;6.564;2022-09-09T05:56:38;21.80;64.20
60455;DHT22;54989;53.398;6.564;2022-09-09T05:59:07;21.80;64.20
60455;DHT22;54989;53.398;6.564;2022-09-09T06:01:36;21.80;64.10
60455;DHT22;54989;53.398;6.564;2022-09-09T06:04:13;21.80;64.10
60455;DHT22;54989;53.398;6.564;2022-09-09T06:06:41;21.80;64.20
60455;DHT22;54989;53.398;6.564;2022-09-09T06:09:15;21.80;64.30
60455;DHT22;54989;53.398;6.564;2022-09-09T06:11:43;21.70;64.20
60455;DHT22;54989;53.398;6.564;2022-09-09T06:14:12;21.80;64.20
60455;DHT22;54989;53.398;6.564;2022-09-09T06:16:40;21.80;64.20
60455;DHT22;54989;53.398;6.564;2022-09-09T06:19:17;21.70;64.20
60455;DHT22;54989;53.398;6.564;2022-09-09T06:21:45;21.80;64.20
60455;DHT22;54989;53.398;6.564;2022-09-09T06:24:12;21.80;64.20
60455;DHT22;54989;53.398;6.564;2022-09-09T06:26:44;21.80;64.20
60455;DHT22;54989;53.398;6.564;2022-09-09T06:29:18;21.80;64.20
60455;DHT22;54989;53.398;6.564;2022-09-09T06:31:45;21.80;64.20
60455;DHT22;54989;53.398;6.564;2022-09-09T06:34:20;21.80;64.20
60455;DHT22;54989;53.398;6.564;2022-09-09T06:36:52;21.80;64.20
60455;DHT22;54989;53.398;6.564;2022-09-09T06:39:20;21.80;64.80
60455;DHT22;54989;53.398;6.564;2022-09-09T06:41:49;21.80;64.20
60455;DHT22;54989;53.398;6.564;2022-09-09T06:44:52;21.80;64.20
60455;DHT22;54989;53.398;6.564;2022-09-09T06:47:34;21.80;64.30
60455;DHT22;54989;53.398;6.564;2022-09-09T06:50:02;21.80;64.30
60455;DHT22;54989;53.398;6.564;2022-09-09T06:52:33;21.80;64.20
60455;DHT22;54989;53.398;6.564;2022-09-09T06:55:01;21.80;64.20
60455;DHT22;54989;53.398;6.564;2022-09-09T06:57:31;21.80;64.20
60455;DHT22;54989;53.398;6.564;2022-09-09T07:00:08;21.80;64.20
60455;DHT22;54989;53.398;6.564;2022-09-09T07:02:37;21.80;64.30
60455;DHT22;54989;53.398;6.564;2022-09-09T07:05:08;21.70;64.20
60455;DHT22;54989;53.398;6.564;2022-09-09T07:07:37;21.80;64.40
60455;DHT22;54989;53.398;6.564;2022-09-09T07:10:05;21.80;64.40
60455;DHT22;54989;53.398;6.564;2022-09-09T07:12:34;21.70;64.30
60455;DHT22;54989;53.398;6.564;2022-09-09T07:15:02;21.70;64.30
60455;DHT22;54989;53.398;6.564;2022-09-09T07:17:29;21.80;65.00
60455;DHT22;54989;53.398;6.564;2022-09-09T07:19:59;21.80;64.40
60455;DHT22;54989;53.398;6.564;2022-09-09T07:22:28;21.80;64.40
60455;DHT22;54989;53.398;6.564;2022-09-09T07:24:56;21.70;64.30
60455;DHT22;54989;53.398;6.564;2022-09-09T07:27:25;21.80;64.40
60455;DHT22;54989;53.398;6.564;2022-09-09T07:29:52;21.70;64.30
60455;DHT22;54989;53.398;6.564;2022-09-09T07:32:21;21.70;64.30
60455;DHT22;54989;53.398;6.564;2022-09-09T07:34:49;21.70;64.30
60455;DHT22;54989;53.398;6.564;2022-09-09T07:37:17;21.70;64.50
60455;DHT22;54989;53.398;6.564;2022-09-09T07:39:47;21.70;64.30
60455;DHT22;54989;53.398;6.564;2022-09-09T07:42:17;21.80;64.30
60455;DHT22;54989;53.398;6.564;2022-09-09T07:44:44;21.80;64.30
60455;DHT22;54989;53.398;6.564;2022-09-09T07:47:14;21.80;64.40
60455;DHT22;54989;53.398;6.564;2022-09-09T07:49:47;21.80;64.40
60455;DHT22;54989;53.398;6.564;2022-09-09T07:52:24;21.70;64.30
60455;DHT22;54989;53.398;6.564;2022-09-09T07:54:55;21.70;64.30
60455;DHT22;54989;53.398;6.564;2022-09-09T07:57:24;21.80;64.40
60455;DHT22;54989;53.398;6.564;2022-09-09T07:59:53;21.70;64.30
60455;DHT22;54989;53.398;6.564;2022-09-09T08:02:20;21.70;64.30
60455;DHT22;54989;53.398;6.564;2022-09-09T08:04:49;21.70;64.30
60455;DHT22;54989;53.398;6.564;2022-09-09T08:07:17;21.80;64.30
60455;DHT22;54989;53.398;6.564;2022-09-09T08:09:50;21.80;64.40
60455;DHT22;54989;53.398;6.564;2022-09-09T08:12:25;21.80;64.40
60455;DHT22;54989;53.398;6.564;2022-09-09T08:14:52;21.80;64.30
60455;DHT22;54989;53.398;6.564;2022-09-09T08:17:24;21.70;64.20
60455;DHT22;54989;53.398;6.564;2022-09-09T08:19:52;21.80;64.30
60455;DHT22;54989;53.398;6.564;2022-09-09T08:22:25;21.70;64.20
60455;DHT22;54989;53.398;6.564;2022-09-09T08:24:54;21.80;64.20
60455;DHT22;54989;53.398;6.564;2022-09-09T08:27:22;21.70;64.30
60455;DHT22;54989;53.398;6.564;2022-09-09T08:29:50;21.80;64.20
60455;DHT22;54989;53.398;6.564;2022-09-09T08:32:18;21.80;64.30
60455;DHT22;54989;53.398;6.564;2022-09-09T08:34:46;21.80;64.30
60455;DHT22;54989;53.398;6.564;2022-09-09T08:37:22;21.80;64.20
60455;DHT22;54989;53.398;6.564;2022-09-09T08:39:49;21.80;65.00
60455;DHT22;54989;53.398;6.564;2022-09-09T08:42:47;21.80;64.30
60455;DHT22;54989;53.398;6.564;2022-09-09T08:45:31;21.80;64.30
60455;DHT22;54989;53.398;6.564;2022-09-09T08:51:03;21.80;64.30
60455;DHT22;54989;53.398;6.564;2022-09-09T08:53:48;21.80;64.30
60455;DHT22;54989;53.398;6.564;2022-09-09T08:56:20;21.80;64.30
60455;DHT22;54989;53.398;6.564;2022-09-09T08:58:53;21.80;64.30
60455;DHT22;54989;53.398;6.564;2022-09-09T09:01:49;21.80;64.40
60455;DHT22;54989;53.398;6.564;2022-09-09T09:07:08;21.90;64.40
60455;DHT22;54989;53.398;6.564;2022-09-09T09:12:24;21.90;64.30
60455;DHT22;54989;53.398;6.564;2022-09-09T09:14:54;21.90;64.30
60455;DHT22;54989;53.398;6.564;2022-09-09T09:17:28;21.90;64.60
60455;DHT22;54989;53.398;6.564;2022-09-09T09:19:59;21.90;64.30
60455;DHT22;54989;53.398;6.564;2022-09-09T09:22:32;21.90;64.30
60455;DHT22;54989;53.398;6.564;2022-09-09T09:25:55;21.90;64.30
60455;DHT22;54989;53.398;6.564;2022-09-09T09:36:08;21.90;64.40
60455;DHT22;54989;53.398;6.564;2022-09-09T09:38:39;21.90;64.40
60455;DHT22;54989;53.398;6.564;2022-09-09T09:41:49;21.90;64.40
60455;DHT22;54989;53.398;6.564;2022-09-09T09:44:27;21.90;64.40
60455;DHT22;54989;53.398;6.564;2022-09-09T09:47:21;21.90;64.40
60455;DHT22;54989;53.398;6.564;2022-09-09T09:50:03;21.90;64.30
60455;DHT22;54989;53.398;6.564;2022-09-09T09:52:36;21.90;64.60
60455;DHT22;54989;53.398;6.564;2022-09-09T09:55:12;22.00;64.50
60455;DHT22;54989;53.398;6.564;2022-09-09T09:57:42;22.00;64.50
60455;DHT22;54989;53.398;6.564;2022-09-09T10:00:15;22.00;64.40
60455;DHT22;54989;53.398;6.564;2022-09-09T10:02:50;22.00;64.50
60455;DHT22;54989;53.398;6.564;2022-09-09T10:05:26;22.00;64.40
60455;DHT22;54989;53.398;6.564;2022-09-09T10:08:12;22.10;65.20
60455;DHT22;54989;53.398;6.564;2022-09-09T10:19:13;22.10;64.70
60455;DHT22;54989;53.398;6.564;2022-09-09T10:34:59;22.10;64.70
60455;DHT22;54989;53.398;6.564;2022-09-09T10:38:03;22.10;64.60
60455;DHT22;54989;53.398;6.564;2022-09-09T10:52:57;22.10;65.20
60455;DHT22;54989;53.398;6.564;2022-09-09T10:55:37;22.10;65.20
60455;DHT22;54989;53.398;6.564;2022-09-09T10:58:12;22.10;65.20
60455;DHT22;54989;53.398;6.564;2022-09-09T11:00:47;22.10;65.20
60455;DHT22;54989;53.398;6.564;2022-09-09T11:03:26;22.20;65.30
60455;DHT22;54989;53.398;6.564;2022-09-09T11:06:00;22.20;65.10
60455;DHT22;54989;53.398;6.564;2022-09-09T11:08:34;22.30;65.40
60455;DHT22;54989;53.398;6.564;2022-09-09T11:11:08;22.30;65.20
60455;DHT22;54989;53.398;6.564;2022-09-09T11:19:33;22.30;65.10
60455;DHT22;54989;53.398;6.564;2022-09-09T11:30:32;22.40;65.00
60455;DHT22;54989;53.398;6.564;2022-09-09T11:44:42;22.50;65.00
60455;DHT22;54989;53.398;6.564;2022-09-09T11:47:29;22.50;65.00
60455;DHT22;54989;53.398;6.564;2022-09-09T11:52:51;22.50;64.80
60455;DHT22;54989;53.398;6.564;2022-09-09T11:55:34;22.50;64.80
60455;DHT22;54989;53.398;6.564;2022-09-09T11:58:13;22.50;64.60
60455;DHT22;54989;53.398;6.564;2022-09-09T12:00:45;22.50;64.70
60455;DHT22;54989;53.398;6.564;2022-09-09T12:06:19;22.60;64.50
60455;DHT22;54989;53.398;6.564;2022-09-09T12:08:51;22.60;64.50
60455;DHT22;54989;53.398;6.564;2022-09-09T12:11:27;22.60;64.40
60455;DHT22;54989;53.398;6.564;2022-09-09T12:13:59;22.70;64.40
60455;DHT22;54989;53.398;6.564;2022-09-09T12:16:34;22.70;64.40
60455;DHT22;54989;53.398;6.564;2022-09-09T12:19:20;22.70;64.50
60455;DHT22;54989;53.398;6.564;2022-09-09T12:22:07;22.70;64.40
60455;DHT22;54989;53.398;6.564;2022-09-09T12:24:41;22.70;64.40
60455;DHT22;54989;53.398;6.564;2022-09-09T12:27:24;22.70;64.40
60455;DHT22;54989;53.398;6.564;2022-09-09T12:30:01;22.70;64.40
60455;DHT22;54989;53.398;6.564;2022-09-09T12:32:30;22.70;64.40
60455;DHT22;54989;53.398;6.564;2022-09-09T12:35:03;22.70;64.40
60455;DHT22;54989;53.398;6.564;2022-09-09T12:37:38;22.70;64.30
60455;DHT22;54989;53.398;6.564;2022-09-09T12:42:47;22.70;64.30
60455;DHT22;54989;53.398;6.564;2022-09-09T12:45:26;22.70;64.30
60455;DHT22;54989;53.398;6.564;2022-09-09T12:48:08;22.70;64.40
60455;DHT22;54989;53.398;6.564;2022-09-09T12:50:38;22.70;64.40
60455;DHT22;54989;53.398;6.564;2022-09-09T12:53:26;22.70;64.40
60455;DHT22;54989;53.398;6.564;2022-09-09T12:56:01;22.70;64.30
60455;DHT22;54989;53.398;6.564;2022-09-09T12:58:30;22.70;64.20
60455;DHT22;54989;53.398;6.564;2022-09-09T13:01:03;22.70;64.30
60455;DHT22;54989;53.398;6.564;2022-09-09T13:03:33;22.70;64.90
60455;DHT22;54989;53.398;6.564;2022-09-09T13:06:12;22.70;64.30
60455;DHT22;54989;53.398;6.564;2022-09-09T13:08:41;22.70;64.30
60455;DHT22;54989;53.398;6.564;2022-09-09T13:11:34;22.80;64.30
60455;DHT22;54989;53.398;6.564;2022-09-09T13:14:03;22.80;64.20
60455;DHT22;54989;53.398;6.564;2022-09-09T13:16:35;22.80;64.20
60455;DHT22;54989;53.398;6.564;2022-09-09T13:19:13;22.80;64.10
60455;DHT22;54989;53.398;6.564;2022-09-09T13:21:42;22.80;64.20
60455;DHT22;54989;53.398;6.564;2022-09-09T13:24:27;22.80;64.10
60455;DHT22;54989;53.398;6.564;2022-09-09T13:27:24;22.80;64.00
60455;DHT22;54989;53.398;6.564;2022-09-09T13:29:54;22.80;64.00
60455;DHT22;54989;53.398;6.564;2022-09-09T13:32:25;22.80;64.10
60455;DHT22;54989;53.398;6.564;2022-09-09T13:34:58;22.80;64.10
60455;DHT22;54989;53.398;6.564;2022-09-09T13:37:33;22.80;64.10
60455;DHT22;54989;53.398;6.564;2022-09-09T13:40:03;22.90;64.00
60455;DHT22;54989;53.398;6.564;2022-09-09T13:42:35;22.90;64.00
60455;DHT22;54989;53.398;6.564;2022-09-09T13:45:05;22.90;64.00
60455;DHT22;54989;53.398;6.564;2022-09-09T13:47:36;22.90;63.90
60455;DHT22;54989;53.398;6.564;2022-09-09T13:50:17;22.90;63.80
60455;DHT22;54989;53.398;6.564;2022-09-09T13:52:45;22.90;64.50
60455;DHT22;54989;53.398;6.564;2022-09-09T13:55:14;22.90;63.90
60455;DHT22;54989;53.398;6.564;2022-09-09T13:58:02;23.00;63.90
60455;DHT22;54989;53.398;6.564;2022-09-09T14:00:31;23.00;63.90
60455;DHT22;54989;53.398;6.564;2022-09-09T14:02:59;23.10;63.90
60455;DHT22;54989;53.398;6.564;2022-09-09T14:05:32;23.10;63.80
60455;DHT22;54989;53.398;6.564;2022-09-09T14:08:00;23.10;63.60
60455;DHT22;54989;53.398;6.564;2022-09-09T14:10:28;23.10;63.60
60455;DHT22;54989;53.398;6.564;2022-09-09T14:12:55;23.10;63.80
60455;DHT22;54989;53.398;6.564;2022-09-09T14:15:23;23.10;63.70
60455;DHT22;54989;53.398;6.564;2022-09-09T14:17:50;23.10;63.70
60455;DHT22;54989;53.398;6.564;2022-09-09T14:20:19;23.10;63.70
60455;DHT22;54989;53.398;6.564;2022-09-09T14:22:47;23.10;63.70
60455;DHT22;54989;53.398;6.564;2022-09-09T14:25:14;23.10;63.70
60455;DHT22;54989;53.398;6.564;2022-09-09T14:27:42;23.10;63.70
60455;DHT22;54989;53.398;6.564;2022-09-09T14:30:10;23.10;63.80
60455;DHT22;54989;53.398;6.564;2022-09-09T14:32:38;23.10;63.80
60455;DHT22;54989;53.398;6.564;2022-09-09T14:35:06;23.10;63.80
60455;DHT22;54989;53.398;6.564;2022-09-09T14:37:34;23.10;63.80
60455;DHT22;54989;53.398;6.564;2022-09-09T14:40:02;23.10;63.90
60455;DHT22;54989;53.398;6.564;2022-09-09T14:42:29;23.00;63.80
60455;DHT22;54989;53.398;6.564;2022-09-09T14:44:58;23.00;63.90
60455;DHT22;54989;53.398;6.564;2022-09-09T14:47:25;23.10;63.90
60455;DHT22;54989;53.398;6.564;2022-09-09T14:49:53;23.00;63.90
60455;DHT22;54989;53.398;6.564;2022-09-09T14:52:20;23.10;64.00
60455;DHT22;54989;53.398;6.564;2022-09-09T14:54:48;23.00;64.00
60455;DHT22;54989;53.398;6.564;2022-09-09T14:57:16;23.00;63.90
60455;DHT22;54989;53.398;6.564;2022-09-09T14:59:44;23.00;64.00
60455;DHT22;54989;53.398;6.564;2022-09-09T15:02:11;22.90;63.90
60455;DHT22;54989;53.398;6.564;2022-09-09T15:04:41;23.00;64.10
60455;DHT22;54989;53.398;6.564;2022-09-09T15:07:08;23.00;64.10
60455;DHT22;54989;53.398;6.564;2022-09-09T15:09:37;23.00;64.10
60455;DHT22;54989;53.398;6.564;2022-09-09T15:12:05;22.90;64.00
60455;DHT22;54989;53.398;6.564;2022-09-09T15:14:32;22.90;64.20
60455;DHT22;54989;53.398;6.564;2022-09-09T15:17:00;22.90;64.30
60455;DHT22;54989;53.398;6.564;2022-09-09T15:19:28;23.00;64.20
60455;DHT22;54989;53.398;6.564;2022-09-09T15:21:58;23.00;64.30
60455;DHT22;54989;53.398;6.564;2022-09-09T15:24:27;23.00;64.10
60455;DHT22;54989;53.398;6.564;2022-09-09T15:26:54;23.00;64.10
60455;DHT22;54989;53.398;6.564;2022-09-09T15:29:22;23.00;64.10
60455;DHT22;54989;53.398;6.564;2022-09-09T15:31:49;23.10;64.20
60455;DHT22;54989;53.398;6.564;2022-09-09T15:34:17;23.00;64.20
60455;DHT22;54989;53.398;6.564;2022-09-09T15:36:45;23.00;64.10
60455;DHT22;54989;53.398;6.564;2022-09-09T15:39:17;23.10;64.10
60455;DHT22;54989;53.398;6.564;2022-09-09T15:41:46;23.00;64.00
60455;DHT22;54989;53.398;6.564;2022-09-09T15:44:15;23.00;63.90
60455;DHT22;54989;53.398;6.564;2022-09-09T15:46:45;23.00;64.00
60455;DHT22;54989;53.398;6.564;2022-09-09T15:51:47;23.00;64.00
60455;DHT22;54989;53.398;6.564;2022-09-09T15:54:19;23.00;64.00
60455;DHT22;54989;53.398;6.564;2022-09-09T15:56:51;23.10;64.10
60455;DHT22;54989;53.398;6.564;2022-09-09T15:59:19;23.10;64.10
60455;DHT22;54989;53.398;6.564;2022-09-09T16:01:47;23.10;64.10
60455;DHT22;54989;53.398;6.564;2022-09-09T16:04:17;23.10;64.00
60455;DHT22;54989;53.398;6.564;2022-09-09T16:06:55;23.10;63.90
60455;DHT22;54989;53.398;6.564;2022-09-09T16:09:23;23.10;63.90
60455;DHT22;54989;53.398;6.564;2022-09-09T16:11:50;23.10;63.90
60455;DHT22;54989;53.398;6.564;2022-09-09T16:14:21;23.10;63.90
60455;DHT22;54989;53.398;6.564;2022-09-09T16:16:49;23.10;64.00
60455;DHT22;54989;53.398;6.564;2022-09-09T16:19:16;23.10;64.00
60455;DHT22;54989;53.398;6.564;2022-09-09T16:21:46;23.00;64.00
60455;DHT22;54989;53.398;6.564;2022-09-09T16:24:17;23.10;64.10
60455;DHT22;54989;53.398;6.564;2022-09-09T16:26:49;23.00;64.00
60455;DHT22;54989;53.398;6.564;2022-09-09T16:29:18;23.00;64.00
60455;DHT22;54989;53.398;6.564;2022-09-09T16:31:46;23.00;63.90
60455;DHT22;54989;53.398;6.564;2022-09-09T16:34:16;23.00;64.10
60455;DHT22;54989;53.398;6.564;2022-09-09T16:36:45;23.00;64.10
60455;DHT22;54989;53.398;6.564;2022-09-09T16:39:17;23.00;64.00
60455;DHT22;54989;53.398;6.564;2022-09-09T16:42:03;23.00;64.00
60455;DHT22;54989;53.398;6.564;2022-09-09T16:44:31;23.00;64.10
60455;DHT22;54989;53.398;6.564;2022-09-09T16:46:59;23.00;64.10
60455;DHT22;54989;53.398;6.564;2022-09-09T16:49:27;23.00;64.10
60455;DHT22;54989;53.398;6.564;2022-09-09T16:51:58;23.00;64.10
60455;DHT22;54989;53.398;6.564;2022-09-09T16:54:26;23.00;64.10
60455;DHT22;54989;53.398;6.564;2022-09-09T16:56:54;23.00;64.10
60455;DHT22;54989;53.398;6.564;2022-09-09T16:59:21;23.00;64.00
60455;DHT22;54989;53.398;6.564;2022-09-09T17:01:51;23.00;64.00
60455;DHT22;54989;53.398;6.564;2022-09-09T17:04:22;23.00;64.10
60455;DHT22;54989;53.398;6.564;2022-09-09T17:06:53;23.00;64.10
60455;DHT22;54989;53.398;6.564;2022-09-09T17:09:21;23.00;64.20
60455;DHT22;54989;53.398;6.564;2022-09-09T17:11:50;23.00;64.30
60455;DHT22;54989;53.398;6.564;2022-09-09T17:14:20;23.00;64.20
60455;DHT22;54989;53.398;6.564;2022-09-09T17:16:48;23.00;64.10
60455;DHT22;54989;53.398;6.564;2022-09-09T17:19:16;23.00;64.30
60455;DHT22;54989;53.398;6.564;2022-09-09T17:21:44;23.00;64.20
60455;DHT22;54989;53.398;6.564;2022-09-09T17:24:34;23.10;64.20
60455;DHT22;54989;53.398;6.564;2022-09-09T17:27:02;23.10;64.20
60455;DHT22;54989;53.398;6.564;2022-09-09T17:29:30;23.10;64.20
60455;DHT22;54989;53.398;6.564;2022-09-09T17:31:58;23.10;64.10
60455;DHT22;54989;53.398;6.564;2022-09-09T17:34:25;23.10;64.20
60455;DHT22;54989;53.398;6.564;2022-09-09T17:36:53;23.10;64.10
60455;DHT22;54989;53.398;6.564;2022-09-09T17:39:21;23.10;64.20
60455;DHT22;54989;53.398;6.564;2022-09-09T17:41:49;23.10;64.20
60455;DHT22;54989;53.398;6.564;2022-09-09T17:44:16;23.10;64.20
60455;DHT22;54989;53.398;6.564;2022-09-09T17:46:46;23.00;64.10
60455;DHT22;54989;53.398;6.564;2022-09-09T17:49:16;23.00;64.20
60455;DHT22;54989;53.398;6.564;2022-09-09T17:51:47;23.00;64.30
60455;DHT22;54989;53.398;6.564;2022-09-09T17:54:17;23.00;64.30
60455;DHT22;54989;53.398;6.564;2022-09-09T17:56:47;22.90;64.20
60455;DHT22;54989;53.398;6.564;2022-09-09T17:59:16;23.00;64.20
60455;DHT22;54989;53.398;6.564;2022-09-09T18:01:46;23.00;64.40
60455;DHT22;54989;53.398;6.564;2022-09-09T18:04:16;22.90;64.80
60455;DHT22;54989;53.398;6.564;2022-09-09T18:06:48;23.00;64.20